الصفحة الرئيسية
METAR-TAF:

METAR-TAF

مطار :

مطار سونان الدولي

بيونغيانغ, كوريا الشمالية

دائرة عرض: 39-02N, خط طول: 125-47E, ارتفاع: 36 متر

METAR: مفقودة

زمن: 08:47 (00:17 UTC)

توقعات

تاريخ ووقت الإصدار 3ساعات و 7 دقيقة قبل الساعة 21:10UTC
التوقعات صالحة من21 الساعة 00 UTC إلى 21 الساعة 24 UTC
ريح 6 عقدة من الغرب/الجنوب الغربي
الرؤية: 0500 متر
ضباب
أصبح
من 21 الساعة 00 UTC إلى 21 الساعة 02 UTC
الرؤية: 5000 متر
غشاء
أصبح
من 21 الساعة 03 UTC إلى 21 الساعة 05 UTC
الرؤية: 8000 متر
غيوم مفككة على ارتفاع 2300 قدم

TAF: ZKPY 202110Z 2100/2124 25003MPS 0500 FG NSC TX19/2106Z TN04/2121Z BECMG 2100/2102 5000 BR BECMG 2103/2105 8000 BKN023

أرصاد الطقس والتوقعات من أكثر من 4000 مطار (تقارير الطقس للمطار METAR والتنبؤ بالطقس بالمطارTAF).

المحطات المتاحة هي النقط الصفراء والحمراء على الخريطة.

حرك المؤشر فوق النقطة لمعرفة اسم المحطة.

ثم انقر لمعرفة أرصاد وتوقعات الطقس.

لتغيير الخارطة: اضغط على الأزرار الخضراء مع رمز الصليب الأسود للتكبير. على الزر الأخضر مع شرطة للتصغير، أو على الأسهم الخضراء للخرائط المجاورة.


METAR-TAF: